Terminal Aerodrome Forecast
Issued by NWS Sioux Falls, SD

Home | Current Version | Previous Version | Text Only | Print | Product List | Glossary On
Versions: 1 2 3 4 5 6 7 8 9 10 11 12 13 14 15 16 17 18 19 20 21 22 23 24 25 26 27
000
FTUS43 KFSD 292107 AAB
TAFFSD
TAF AMD
KFSD 292107Z 2921/3018 20008KT P6SM BKN015 BKN030
      TEMPO 2921/2922 1 1/2SM +TSRA BKN015CB
     FM300900 33006KT 4SM BR SKC
      TEMPO 3010/3014 33005KT 1 1/2SM BR OVC003
     FM301400 33005KT 4SM BR SKC
     FM301600 35005KT P6SM FEW250=

USA.gov is the U.S. government's official web portal to all federal, state and local government web resources and services.